Aeroporto :
LOGIN :

Iscrizione | Disclaimer

   EN    FR    IT 

 










Sommario :    VFR   VFR Marginale   IFR   IFR Intensivo   IFR Molto Intensivo
Visibilità : 
Base nubi : 
>= 8 km
>= 3000ft
5 / 8 km
1000 / 3000 ft
1500m / 5 km
500 / 1000 ft
800 / 1500m
200 / 500 ft
< 800m
< 200 ft
Simboli :   Temporali  Nebbia  Neve Forte  Precipitazioni Forti  Vento > 20 kt
SIGMETs :   Varie  Temporali  Ghiacco  Turbolenza  Onda orograficha  Ceneri Vulcaniche






- Altitudine del aeroporto : 44 ft
- Codice IATA : SOU


EGHI - Southampton

ULTIMO METAR :
  • 121120Z 13004KT 060V220 CAVOK 31/17 Q1013

METARs OBSOLETI :
  • 121050Z 15006KT 100V190 CAVOK 30/17 Q1013
  • 121020Z 12006KT 070V180 CAVOK 30/17 Q1013
  • 120950Z 13006KT 090V170 CAVOK 29/16 Q1013
  • 120920Z 14006KT 080V190 CAVOK 28/17 Q1013
  • 120850Z 13006KT 090V170 CAVOK 27/16 Q1013

TAF TAF EGHI
Valido dal 12 a 12 ore il 12 a 19 ore UTC


121104Z 1212/1219 13006KT CAVOK
PROB30
TEMPO 1217/1219 4000 TSRA
ATIS : +44 23 8062 7103



MetMap, La meteo Aeronautica in un colpo d'occhio ! - Copyright ORBIFLY Dicembre 2007 - Disclaimer

ORBIFLY MET'MAP TEAM :

Programmazione e sviluppo : Alexandra Zaïnal
Concezione : Baudouin d'Aumeries
Aiuto per la programmazione : Marc-Olivier Méhu
Supporto tecnico e logistico : Manuel Goepfert
Aiuto per la traduzione : Arnaldo La Scala

Contatto : metmap@orbifly.com




FONTI E CREDITI :

   NOAA